sensor_id;sensor_type;location;lat;lon;timestamp;P1;durP1;ratioP1;P2;durP2;ratioP2
17604;SDS011;8921;50.964;6.800;2024-03-08T00:00:14;29.30;;;19.63;;
17604;SDS011;8921;50.964;6.800;2024-03-08T00:02:42;29.80;;;20.87;;
17604;SDS011;8921;50.964;6.800;2024-03-08T00:05:11;32.40;;;20.13;;
17604;SDS011;8921;50.964;6.800;2024-03-08T00:07:39;28.03;;;19.30;;
17604;SDS011;8921;50.964;6.800;2024-03-08T00:10:08;33.50;;;21.27;;
17604;SDS011;8921;50.964;6.800;2024-03-08T00:12:35;30.47;;;17.33;;
17604;SDS011;8921;50.964;6.800;2024-03-08T00:15:04;33.50;;;17.80;;
17604;SDS011;8921;50.964;6.800;2024-03-08T00:17:32;31.47;;;17.90;;
17604;SDS011;8921;50.964;6.800;2024-03-08T00:20:00;27.37;;;17.10;;
17604;SDS011;8921;50.964;6.800;2024-03-08T00:22:29;28.80;;;17.13;;
17604;SDS011;8921;50.964;6.800;2024-03-08T00:24:57;30.43;;;17.47;;
17604;SDS011;8921;50.964;6.800;2024-03-08T00:27:25;31.23;;;17.60;;
17604;SDS011;8921;50.964;6.800;2024-03-08T00:29:54;27.37;;;15.63;;
17604;SDS011;8921;50.964;6.800;2024-03-08T00:32:22;27.30;;;16.67;;
17604;SDS011;8921;50.964;6.800;2024-03-08T00:34:53;30.77;;;18.00;;
17604;SDS011;8921;50.964;6.800;2024-03-08T00:37:21;33.87;;;18.73;;
17604;SDS011;8921;50.964;6.800;2024-03-08T00:39:50;33.97;;;17.90;;
17604;SDS011;8921;50.964;6.800;2024-03-08T00:42:18;36.13;;;18.17;;
17604;SDS011;8921;50.964;6.800;2024-03-08T00:44:46;28.23;;;17.00;;
17604;SDS011;8921;50.964;6.800;2024-03-08T00:47:14;23.57;;;15.20;;
17604;SDS011;8921;50.964;6.800;2024-03-08T00:49:43;29.63;;;16.60;;
17604;SDS011;8921;50.964;6.800;2024-03-08T00:52:11;30.77;;;16.33;;
17604;SDS011;8921;50.964;6.800;2024-03-08T00:54:39;33.37;;;18.77;;
17604;SDS011;8921;50.964;6.800;2024-03-08T00:57:07;28.03;;;17.40;;
17604;SDS011;8921;50.964;6.800;2024-03-08T00:59:37;32.13;;;18.90;;
17604;SDS011;8921;50.964;6.800;2024-03-08T01:02:04;32.40;;;20.17;;
17604;SDS011;8921;50.964;6.800;2024-03-08T01:04:32;36.03;;;19.20;;
17604;SDS011;8921;50.964;6.800;2024-03-08T01:07:00;28.70;;;19.10;;
17604;SDS011;8921;50.964;6.800;2024-03-08T01:09:29;29.07;;;17.90;;
17604;SDS011;8921;50.964;6.800;2024-03-08T01:11:57;31.87;;;18.17;;
17604;SDS011;8921;50.964;6.800;2024-03-08T01:14:42;29.43;;;17.77;;
17604;SDS011;8921;50.964;6.800;2024-03-08T01:17:10;30.13;;;19.30;;
17604;SDS011;8921;50.964;6.800;2024-03-08T01:19:38;33.10;;;21.00;;
17604;SDS011;8921;50.964;6.800;2024-03-08T01:22:13;33.07;;;21.07;;
17604;SDS011;8921;50.964;6.800;2024-03-08T01:24:41;33.10;;;19.53;;
17604;SDS011;8921;50.964;6.800;2024-03-08T01:27:09;37.43;;;20.57;;
17604;SDS011;8921;50.964;6.800;2024-03-08T01:29:38;30.73;;;20.70;;
17604;SDS011;8921;50.964;6.800;2024-03-08T01:32:06;30.20;;;20.20;;
17604;SDS011;8921;50.964;6.800;2024-03-08T01:34:34;31.07;;;18.20;;
17604;SDS011;8921;50.964;6.800;2024-03-08T01:37:02;30.07;;;19.13;;
17604;SDS011;8921;50.964;6.800;2024-03-08T01:39:31;33.07;;;19.30;;
17604;SDS011;8921;50.964;6.800;2024-03-08T01:41:59;30.77;;;19.20;;
17604;SDS011;8921;50.964;6.800;2024-03-08T01:44:27;32.77;;;18.70;;
17604;SDS011;8921;50.964;6.800;2024-03-08T01:46:56;33.90;;;18.50;;
17604;SDS011;8921;50.964;6.800;2024-03-08T01:49:24;28.67;;;17.03;;
17604;SDS011;8921;50.964;6.800;2024-03-08T01:51:52;30.80;;;18.53;;
17604;SDS011;8921;50.964;6.800;2024-03-08T01:54:21;33.80;;;20.03;;
17604;SDS011;8921;50.964;6.800;2024-03-08T01:56:49;34.17;;;21.03;;
17604;SDS011;8921;50.964;6.800;2024-03-08T01:59:17;30.40;;;19.67;;
17604;SDS011;8921;50.964;6.800;2024-03-08T02:01:45;29.77;;;20.17;;
17604;SDS011;8921;50.964;6.800;2024-03-08T02:04:14;33.60;;;21.47;;
17604;SDS011;8921;50.964;6.800;2024-03-08T02:06:42;32.47;;;20.07;;
17604;SDS011;8921;50.964;6.800;2024-03-08T02:09:10;31.53;;;19.70;;
17604;SDS011;8921;50.964;6.800;2024-03-08T02:11:40;32.33;;;20.70;;
17604;SDS011;8921;50.964;6.800;2024-03-08T02:14:07;30.30;;;20.97;;
17604;SDS011;8921;50.964;6.800;2024-03-08T02:16:35;32.67;;;21.80;;
17604;SDS011;8921;50.964;6.800;2024-03-08T02:19:03;32.90;;;21.10;;
17604;SDS011;8921;50.964;6.800;2024-03-08T02:21:32;32.40;;;19.27;;
17604;SDS011;8921;50.964;6.800;2024-03-08T02:24:00;32.27;;;20.93;;
17604;SDS011;8921;50.964;6.800;2024-03-08T02:26:28;33.10;;;20.23;;
17604;SDS011;8921;50.964;6.800;2024-03-08T02:28:57;37.47;;;20.83;;
17604;SDS011;8921;50.964;6.800;2024-03-08T02:31:25;41.30;;;21.17;;
17604;SDS011;8921;50.964;6.800;2024-03-08T02:33:53;35.87;;;18.83;;
17604;SDS011;8921;50.964;6.800;2024-03-08T02:36:21;31.37;;;19.40;;
17604;SDS011;8921;50.964;6.800;2024-03-08T02:38:50;33.37;;;19.33;;
17604;SDS011;8921;50.964;6.800;2024-03-08T02:41:18;31.90;;;20.40;;
17604;SDS011;8921;50.964;6.800;2024-03-08T02:43:46;33.03;;;20.47;;
17604;SDS011;8921;50.964;6.800;2024-03-08T02:46:15;31.53;;;18.80;;
17604;SDS011;8921;50.964;6.800;2024-03-08T02:48:43;33.30;;;19.30;;
17604;SDS011;8921;50.964;6.800;2024-03-08T02:51:11;34.20;;;19.47;;
17604;SDS011;8921;50.964;6.800;2024-03-08T02:53:40;33.87;;;19.77;;
17604;SDS011;8921;50.964;6.800;2024-03-08T02:56:08;29.23;;;17.47;;
17604;SDS011;8921;50.964;6.800;2024-03-08T02:58:36;34.27;;;20.27;;
17604;SDS011;8921;50.964;6.800;2024-03-08T03:01:05;33.97;;;20.53;;
17604;SDS011;8921;50.964;6.800;2024-03-08T03:03:33;33.67;;;19.47;;
17604;SDS011;8921;50.964;6.800;2024-03-08T03:06:01;32.13;;;19.30;;
17604;SDS011;8921;50.964;6.800;2024-03-08T03:08:30;31.33;;;18.70;;
17604;SDS011;8921;50.964;6.800;2024-03-08T03:10:58;36.23;;;20.10;;
17604;SDS011;8921;50.964;6.800;2024-03-08T03:13:26;30.87;;;18.03;;
17604;SDS011;8921;50.964;6.800;2024-03-08T03:15:54;34.17;;;18.33;;
17604;SDS011;8921;50.964;6.800;2024-03-08T03:18:23;29.73;;;18.80;;
17604;SDS011;8921;50.964;6.800;2024-03-08T03:20:51;28.40;;;17.20;;
17604;SDS011;8921;50.964;6.800;2024-03-08T03:23:19;32.03;;;17.03;;
17604;SDS011;8921;50.964;6.800;2024-03-08T03:25:48;34.13;;;17.67;;
17604;SDS011;8921;50.964;6.800;2024-03-08T03:28:16;36.53;;;18.57;;
17604;SDS011;8921;50.964;6.800;2024-03-08T03:30:45;35.90;;;19.40;;
17604;SDS011;8921;50.964;6.800;2024-03-08T03:33:13;31.67;;;18.33;;
17604;SDS011;8921;50.964;6.800;2024-03-08T03:35:41;35.30;;;17.47;;
17604;SDS011;8921;50.964;6.800;2024-03-08T03:38:09;33.60;;;20.67;;
17604;SDS011;8921;50.964;6.800;2024-03-08T03:40:38;35.63;;;19.70;;
17604;SDS011;8921;50.964;6.800;2024-03-08T03:43:09;34.37;;;21.20;;
17604;SDS011;8921;50.964;6.800;2024-03-08T03:45:37;35.40;;;18.80;;
17604;SDS011;8921;50.964;6.800;2024-03-08T03:48:06;35.63;;;19.33;;
17604;SDS011;8921;50.964;6.800;2024-03-08T03:50:34;35.20;;;19.00;;
17604;SDS011;8921;50.964;6.800;2024-03-08T03:53:02;30.23;;;16.50;;
17604;SDS011;8921;50.964;6.800;2024-03-08T03:55:30;39.73;;;20.07;;
17604;SDS011;8921;50.964;6.800;2024-03-08T03:57:58;28.67;;;17.80;;
17604;SDS011;8921;50.964;6.800;2024-03-08T04:00:27;32.00;;;18.23;;
17604;SDS011;8921;50.964;6.800;2024-03-08T04:02:55;41.20;;;20.57;;
17604;SDS011;8921;50.964;6.800;2024-03-08T04:05:23;36.67;;;19.20;;
17604;SDS011;8921;50.964;6.800;2024-03-08T04:07:52;32.17;;;18.10;;
17604;SDS011;8921;50.964;6.800;2024-03-08T04:10:20;33.17;;;18.27;;
17604;SDS011;8921;50.964;6.800;2024-03-08T04:12:48;32.57;;;17.50;;
17604;SDS011;8921;50.964;6.800;2024-03-08T04:15:17;35.77;;;19.10;;
17604;SDS011;8921;50.964;6.800;2024-03-08T04:17:45;35.00;;;19.70;;
17604;SDS011;8921;50.964;6.800;2024-03-08T04:20:13;34.10;;;17.77;;
17604;SDS011;8921;50.964;6.800;2024-03-08T04:22:42;36.47;;;20.03;;
17604;SDS011;8921;50.964;6.800;2024-03-08T04:25:10;35.03;;;19.43;;
17604;SDS011;8921;50.964;6.800;2024-03-08T04:27:38;31.67;;;18.70;;
17604;SDS011;8921;50.964;6.800;2024-03-08T04:30:07;32.57;;;18.97;;
17604;SDS011;8921;50.964;6.800;2024-03-08T04:32:35;43.50;;;21.70;;
17604;SDS011;8921;50.964;6.800;2024-03-08T04:35:03;35.83;;;20.37;;
17604;SDS011;8921;50.964;6.800;2024-03-08T04:37:32;36.97;;;17.10;;
17604;SDS011;8921;50.964;6.800;2024-03-08T04:40:00;39.43;;;18.73;;
17604;SDS011;8921;50.964;6.800;2024-03-08T04:42:28;31.87;;;19.53;;
17604;SDS011;8921;50.964;6.800;2024-03-08T04:44:57;40.67;;;20.00;;
17604;SDS011;8921;50.964;6.800;2024-03-08T04:47:25;35.87;;;18.43;;
17604;SDS011;8921;50.964;6.800;2024-03-08T04:49:53;36.67;;;20.50;;
17604;SDS011;8921;50.964;6.800;2024-03-08T04:52:21;40.00;;;21.20;;
17604;SDS011;8921;50.964;6.800;2024-03-08T04:54:50;33.83;;;20.07;;
17604;SDS011;8921;50.964;6.800;2024-03-08T04:57:18;35.07;;;20.10;;
17604;SDS011;8921;50.964;6.800;2024-03-08T04:59:46;30.47;;;17.37;;
17604;SDS011;8921;50.964;6.800;2024-03-08T05:02:15;34.63;;;17.27;;
17604;SDS011;8921;50.964;6.800;2024-03-08T05:04:43;37.30;;;20.13;;
17604;SDS011;8921;50.964;6.800;2024-03-08T05:07:11;34.97;;;18.93;;
17604;SDS011;8921;50.964;6.800;2024-03-08T05:09:39;33.50;;;17.50;;
17604;SDS011;8921;50.964;6.800;2024-03-08T05:12:08;33.23;;;17.43;;
17604;SDS011;8921;50.964;6.800;2024-03-08T05:14:36;33.83;;;16.87;;
17604;SDS011;8921;50.964;6.800;2024-03-08T05:17:04;35.40;;;17.77;;
17604;SDS011;8921;50.964;6.800;2024-03-08T05:19:33;34.70;;;19.40;;
17604;SDS011;8921;50.964;6.800;2024-03-08T05:22:01;32.13;;;16.67;;
17604;SDS011;8921;50.964;6.800;2024-03-08T05:24:29;32.47;;;18.00;;
17604;SDS011;8921;50.964;6.800;2024-03-08T05:26:58;38.30;;;18.83;;
17604;SDS011;8921;50.964;6.800;2024-03-08T05:29:26;35.63;;;19.40;;
17604;SDS011;8921;50.964;6.800;2024-03-08T05:31:54;35.27;;;17.30;;
17604;SDS011;8921;50.964;6.800;2024-03-08T05:34:22;33.97;;;18.03;;
17604;SDS011;8921;50.964;6.800;2024-03-08T05:36:51;33.67;;;18.23;;
17604;SDS011;8921;50.964;6.800;2024-03-08T05:39:19;31.90;;;17.83;;
17604;SDS011;8921;50.964;6.800;2024-03-08T05:41:47;39.93;;;19.73;;
17604;SDS011;8921;50.964;6.800;2024-03-08T05:44:16;31.07;;;17.60;;
17604;SDS011;8921;50.964;6.800;2024-03-08T05:46:44;43.37;;;19.40;;
17604;SDS011;8921;50.964;6.800;2024-03-08T05:49:15;38.27;;;18.20;;
17604;SDS011;8921;50.964;6.800;2024-03-08T05:51:44;32.07;;;17.33;;
17604;SDS011;8921;50.964;6.800;2024-03-08T05:54:12;29.23;;;17.93;;
17604;SDS011;8921;50.964;6.800;2024-03-08T05:56:40;29.60;;;16.63;;
17604;SDS011;8921;50.964;6.800;2024-03-08T05:59:09;31.63;;;18.17;;
17604;SDS011;8921;50.964;6.800;2024-03-08T06:01:37;36.73;;;18.30;;
17604;SDS011;8921;50.964;6.800;2024-03-08T06:04:05;31.93;;;19.40;;
17604;SDS011;8921;50.964;6.800;2024-03-08T06:06:33;31.80;;;17.33;;
17604;SDS011;8921;50.964;6.800;2024-03-08T06:09:02;33.73;;;18.37;;
17604;SDS011;8921;50.964;6.800;2024-03-08T06:11:30;37.50;;;18.40;;
17604;SDS011;8921;50.964;6.800;2024-03-08T06:13:58;42.57;;;20.93;;
17604;SDS011;8921;50.964;6.800;2024-03-08T06:16:27;30.13;;;16.93;;
17604;SDS011;8921;50.964;6.800;2024-03-08T06:18:56;39.67;;;21.10;;
17604;SDS011;8921;50.964;6.800;2024-03-08T06:21:24;38.43;;;18.13;;
17604;SDS011;8921;50.964;6.800;2024-03-08T06:23:54;40.33;;;19.80;;
17604;SDS011;8921;50.964;6.800;2024-03-08T06:28:44;41.87;;;21.33;;
17604;SDS011;8921;50.964;6.800;2024-03-08T06:31:12;38.53;;;20.13;;
17604;SDS011;8921;50.964;6.800;2024-03-08T06:33:41;38.43;;;19.00;;
17604;SDS011;8921;50.964;6.800;2024-03-08T06:36:09;45.77;;;20.60;;
17604;SDS011;8921;50.964;6.800;2024-03-08T06:38:38;43.57;;;23.73;;
17604;SDS011;8921;50.964;6.800;2024-03-08T06:41:09;41.53;;;22.30;;
17604;SDS011;8921;50.964;6.800;2024-03-08T06:43:37;41.47;;;22.50;;
17604;SDS011;8921;50.964;6.800;2024-03-08T06:46:05;42.67;;;21.63;;
17604;SDS011;8921;50.964;6.800;2024-03-08T06:48:34;44.40;;;24.00;;
17604;SDS011;8921;50.964;6.800;2024-03-08T06:51:03;40.40;;;23.30;;
17604;SDS011;8921;50.964;6.800;2024-03-08T06:53:30;41.93;;;23.30;;
17604;SDS011;8921;50.964;6.800;2024-03-08T06:55:58;34.03;;;22.53;;
17604;SDS011;8921;50.964;6.800;2024-03-08T06:58:27;37.40;;;22.37;;
17604;SDS011;8921;50.964;6.800;2024-03-08T07:00:55;40.90;;;21.90;;
17604;SDS011;8921;50.964;6.800;2024-03-08T07:03:23;40.00;;;24.80;;
17604;SDS011;8921;50.964;6.800;2024-03-08T07:05:52;35.50;;;23.10;;
17604;SDS011;8921;50.964;6.800;2024-03-08T07:08:20;39.60;;;24.07;;
17604;SDS011;8921;50.964;6.800;2024-03-08T07:10:48;37.40;;;22.50;;
17604;SDS011;8921;50.964;6.800;2024-03-08T07:13:17;35.50;;;21.37;;
17604;SDS011;8921;50.964;6.800;2024-03-08T07:15:45;39.77;;;23.30;;
17604;SDS011;8921;50.964;6.800;2024-03-08T07:18:13;49.27;;;23.87;;
17604;SDS011;8921;50.964;6.800;2024-03-08T07:20:41;39.40;;;22.47;;
17604;SDS011;8921;50.964;6.800;2024-03-08T07:23:10;37.00;;;22.13;;
17604;SDS011;8921;50.964;6.800;2024-03-08T07:25:38;43.27;;;22.40;;
17604;SDS011;8921;50.964;6.800;2024-03-08T07:28:06;37.30;;;24.90;;
17604;SDS011;8921;50.964;6.800;2024-03-08T07:30:35;39.17;;;23.67;;
17604;SDS011;8921;50.964;6.800;2024-03-08T07:33:12;38.33;;;22.63;;
17604;SDS011;8921;50.964;6.800;2024-03-08T07:35:40;36.80;;;20.97;;
17604;SDS011;8921;50.964;6.800;2024-03-08T07:38:09;42.70;;;22.50;;
17604;SDS011;8921;50.964;6.800;2024-03-08T07:40:37;32.90;;;22.17;;
17604;SDS011;8921;50.964;6.800;2024-03-08T07:43:09;34.70;;;21.73;;
17604;SDS011;8921;50.964;6.800;2024-03-08T07:45:37;32.10;;;20.43;;
17604;SDS011;8921;50.964;6.800;2024-03-08T07:48:05;38.90;;;23.37;;
17604;SDS011;8921;50.964;6.800;2024-03-08T07:50:37;36.27;;;20.80;;
17604;SDS011;8921;50.964;6.800;2024-03-08T07:53:05;35.70;;;22.57;;
17604;SDS011;8921;50.964;6.800;2024-03-08T07:55:33;33.97;;;22.13;;
17604;SDS011;8921;50.964;6.800;2024-03-08T07:58:02;34.17;;;22.70;;
17604;SDS011;8921;50.964;6.800;2024-03-08T08:00:30;31.63;;;21.33;;
17604;SDS011;8921;50.964;6.800;2024-03-08T08:02:58;32.20;;;21.10;;
17604;SDS011;8921;50.964;6.800;2024-03-08T08:05:26;30.57;;;19.30;;
17604;SDS011;8921;50.964;6.800;2024-03-08T08:07:55;35.93;;;22.30;;
17604;SDS011;8921;50.964;6.800;2024-03-08T08:10:23;32.00;;;21.13;;
17604;SDS011;8921;50.964;6.800;2024-03-08T08:12:51;35.50;;;22.70;;
17604;SDS011;8921;50.964;6.800;2024-03-08T08:15:20;36.30;;;22.17;;
17604;SDS011;8921;50.964;6.800;2024-03-08T08:17:48;33.97;;;21.10;;
17604;SDS011;8921;50.964;6.800;2024-03-08T08:20:16;32.87;;;21.00;;
17604;SDS011;8921;50.964;6.800;2024-03-08T08:22:44;31.50;;;20.57;;
17604;SDS011;8921;50.964;6.800;2024-03-08T08:25:13;30.20;;;20.70;;
17604;SDS011;8921;50.964;6.800;2024-03-08T08:27:41;33.30;;;20.60;;
17604;SDS011;8921;50.964;6.800;2024-03-08T08:30:09;36.90;;;21.40;;
17604;SDS011;8921;50.964;6.800;2024-03-08T08:32:38;37.43;;;21.97;;
17604;SDS011;8921;50.964;6.800;2024-03-08T08:35:06;37.40;;;21.40;;
17604;SDS011;8921;50.964;6.800;2024-03-08T08:37:34;29.30;;;18.57;;
17604;SDS011;8921;50.964;6.800;2024-03-08T08:40:03;30.50;;;19.77;;
17604;SDS011;8921;50.964;6.800;2024-03-08T08:42:32;31.03;;;19.63;;
17604;SDS011;8921;50.964;6.800;2024-03-08T08:45:01;33.40;;;20.87;;
17604;SDS011;8921;50.964;6.800;2024-03-08T08:47:29;32.97;;;19.87;;
17604;SDS011;8921;50.964;6.800;2024-03-08T08:49:58;29.93;;;19.40;;
17604;SDS011;8921;50.964;6.800;2024-03-08T08:52:26;29.63;;;21.27;;
17604;SDS011;8921;50.964;6.800;2024-03-08T08:54:54;30.30;;;20.00;;
17604;SDS011;8921;50.964;6.800;2024-03-08T08:57:22;28.87;;;20.07;;
17604;SDS011;8921;50.964;6.800;2024-03-08T08:59:51;28.27;;;18.67;;
17604;SDS011;8921;50.964;6.800;2024-03-08T09:02:19;29.10;;;17.47;;
17604;SDS011;8921;50.964;6.800;2024-03-08T09:04:47;28.83;;;19.97;;
17604;SDS011;8921;50.964;6.800;2024-03-08T09:07:16;31.30;;;19.00;;
17604;SDS011;8921;50.964;6.800;2024-03-08T09:09:44;31.87;;;18.80;;
17604;SDS011;8921;50.964;6.800;2024-03-08T09:12:12;28.20;;;18.50;;
17604;SDS011;8921;50.964;6.800;2024-03-08T09:14:41;30.50;;;19.27;;
17604;SDS011;8921;50.964;6.800;2024-03-08T09:17:09;30.10;;;18.50;;
17604;SDS011;8921;50.964;6.800;2024-03-08T09:19:37;31.73;;;19.07;;
17604;SDS011;8921;50.964;6.800;2024-03-08T09:22:06;31.97;;;18.67;;
17604;SDS011;8921;50.964;6.800;2024-03-08T09:24:34;27.40;;;18.20;;
17604;SDS011;8921;50.964;6.800;2024-03-08T09:27:02;27.83;;;17.60;;
17604;SDS011;8921;50.964;6.800;2024-03-08T09:29:31;26.57;;;16.67;;
17604;SDS011;8921;50.964;6.800;2024-03-08T09:31:59;30.20;;;17.57;;
17604;SDS011;8921;50.964;6.800;2024-03-08T09:37:01;29.67;;;18.10;;
17604;SDS011;8921;50.964;6.800;2024-03-08T09:39:29;31.77;;;17.07;;
17604;SDS011;8921;50.964;6.800;2024-03-08T09:41:57;34.80;;;17.40;;
17604;SDS011;8921;50.964;6.800;2024-03-08T09:44:26;29.03;;;19.23;;
17604;SDS011;8921;50.964;6.800;2024-03-08T09:46:54;30.00;;;17.63;;
17604;SDS011;8921;50.964;6.800;2024-03-08T09:49:22;31.23;;;17.37;;
17604;SDS011;8921;50.964;6.800;2024-03-08T09:51:50;32.33;;;17.47;;
17604;SDS011;8921;50.964;6.800;2024-03-08T09:54:19;37.70;;;19.20;;
17604;SDS011;8921;50.964;6.800;2024-03-08T09:56:47;25.63;;;17.23;;
17604;SDS011;8921;50.964;6.800;2024-03-08T09:59:15;31.33;;;17.03;;
17604;SDS011;8921;50.964;6.800;2024-03-08T10:01:50;29.30;;;18.30;;
17604;SDS011;8921;50.964;6.800;2024-03-08T10:04:18;30.50;;;18.23;;
17604;SDS011;8921;50.964;6.800;2024-03-08T10:06:46;29.93;;;15.93;;
17604;SDS011;8921;50.964;6.800;2024-03-08T10:09:15;31.43;;;15.50;;
17604;SDS011;8921;50.964;6.800;2024-03-08T10:11:43;23.80;;;15.60;;
17604;SDS011;8921;50.964;6.800;2024-03-08T10:14:11;32.97;;;17.60;;
17604;SDS011;8921;50.964;6.800;2024-03-08T10:16:40;21.33;;;14.20;;
17604;SDS011;8921;50.964;6.800;2024-03-08T10:19:08;22.93;;;14.10;;
17604;SDS011;8921;50.964;6.800;2024-03-08T10:21:46;23.07;;;13.37;;
17604;SDS011;8921;50.964;6.800;2024-03-08T10:24:05;23.07;;;12.80;;
17604;SDS011;8921;50.964;6.800;2024-03-08T10:26:33;20.93;;;13.10;;
17604;SDS011;8921;50.964;6.800;2024-03-08T10:29:01;20.57;;;12.37;;
17604;SDS011;8921;50.964;6.800;2024-03-08T10:31:29;17.77;;;11.57;;
17604;SDS011;8921;50.964;6.800;2024-03-08T10:33:58;22.73;;;13.80;;
17604;SDS011;8921;50.964;6.800;2024-03-08T10:36:26;18.97;;;11.50;;
17604;SDS011;8921;50.964;6.800;2024-03-08T10:38:54;21.17;;;12.57;;
17604;SDS011;8921;50.964;6.800;2024-03-08T10:41:23;19.53;;;11.10;;
17604;SDS011;8921;50.964;6.800;2024-03-08T10:49:30;17.07;;;11.03;;
17604;SDS011;8921;50.964;6.800;2024-03-08T10:51:58;18.50;;;10.57;;
17604;SDS011;8921;50.964;6.800;2024-03-08T10:54:26;18.10;;;11.13;;
17604;SDS011;8921;50.964;6.800;2024-03-08T10:56:55;18.97;;;12.07;;
17604;SDS011;8921;50.964;6.800;2024-03-08T10:59:23;16.30;;;10.70;;
17604;SDS011;8921;50.964;6.800;2024-03-08T11:01:51;17.47;;;11.33;;
17604;SDS011;8921;50.964;6.800;2024-03-08T11:04:20;16.30;;;11.17;;
17604;SDS011;8921;50.964;6.800;2024-03-08T11:06:48;18.00;;;11.37;;
17604;SDS011;8921;50.964;6.800;2024-03-08T11:14:56;19.30;;;10.60;;
17604;SDS011;8921;50.964;6.800;2024-03-08T11:19:58;19.90;;;11.30;;
17604;SDS011;8921;50.964;6.800;2024-03-08T11:22:29;17.33;;;10.17;;
17604;SDS011;8921;50.964;6.800;2024-03-08T11:25:04;19.67;;;11.67;;
17604;SDS011;8921;50.964;6.800;2024-03-08T11:27:38;18.87;;;12.10;;
17604;SDS011;8921;50.964;6.800;2024-03-08T11:30:06;18.77;;;10.87;;
17604;SDS011;8921;50.964;6.800;2024-03-08T11:32:37;15.37;;;10.07;;
17604;SDS011;8921;50.964;6.800;2024-03-08T11:35:06;16.40;;;10.57;;
17604;SDS011;8921;50.964;6.800;2024-03-08T11:37:34;16.47;;;10.87;;
17604;SDS011;8921;50.964;6.800;2024-03-08T11:40:02;18.00;;;12.10;;
17604;SDS011;8921;50.964;6.800;2024-03-08T11:42:30;20.20;;;10.97;;
17604;SDS011;8921;50.964;6.800;2024-03-08T11:44:59;18.70;;;11.80;;
17604;SDS011;8921;50.964;6.800;2024-03-08T11:47:27;19.73;;;12.07;;
17604;SDS011;8921;50.964;6.800;2024-03-08T11:49:55;18.57;;;10.40;;
17604;SDS011;8921;50.964;6.800;2024-03-08T11:52:24;23.27;;;11.47;;
17604;SDS011;8921;50.964;6.800;2024-03-08T11:54:52;17.40;;;11.60;;
17604;SDS011;8921;50.964;6.800;2024-03-08T11:57:23;30.13;;;11.53;;
17604;SDS011;8921;50.964;6.800;2024-03-08T11:59:54;17.33;;;10.83;;
17604;SDS011;8921;50.964;6.800;2024-03-08T12:02:20;17.77;;;11.10;;
17604;SDS011;8921;50.964;6.800;2024-03-08T12:04:55;19.00;;;12.20;;
17604;SDS011;8921;50.964;6.800;2024-03-08T12:07:16;17.00;;;10.97;;
17604;SDS011;8921;50.964;6.800;2024-03-08T12:10:13;17.23;;;10.80;;
17604;SDS011;8921;50.964;6.800;2024-03-08T12:12:13;18.27;;;10.47;;
17604;SDS011;8921;50.964;6.800;2024-03-08T12:14:43;18.50;;;11.50;;
17604;SDS011;8921;50.964;6.800;2024-03-08T12:17:09;15.67;;;9.70;;
17604;SDS011;8921;50.964;6.800;2024-03-08T12:19:38;19.80;;;11.50;;
17604;SDS011;8921;50.964;6.800;2024-03-08T12:22:09;15.77;;;10.63;;
17604;SDS011;8921;50.964;6.800;2024-03-08T12:24:37;17.10;;;10.83;;
17604;SDS011;8921;50.964;6.800;2024-03-08T12:27:17;16.53;;;10.73;;
17604;SDS011;8921;50.964;6.800;2024-03-08T12:29:34;22.43;;;11.47;;
17604;SDS011;8921;50.964;6.800;2024-03-08T12:32:02;17.90;;;11.77;;
17604;SDS011;8921;50.964;6.800;2024-03-08T12:34:30;18.20;;;11.80;;
17604;SDS011;8921;50.964;6.800;2024-03-08T12:36:59;17.20;;;11.50;;
17604;SDS011;8921;50.964;6.800;2024-03-08T12:39:27;23.67;;;10.83;;
17604;SDS011;8921;50.964;6.800;2024-03-08T12:41:55;17.77;;;10.90;;
17604;SDS011;8921;50.964;6.800;2024-03-08T12:44:24;17.07;;;11.10;;
17604;SDS011;8921;50.964;6.800;2024-03-08T12:46:52;19.83;;;11.43;;
17604;SDS011;8921;50.964;6.800;2024-03-08T12:49:20;16.60;;;11.33;;
17604;SDS011;8921;50.964;6.800;2024-03-08T12:51:48;21.80;;;10.67;;
17604;SDS011;8921;50.964;6.800;2024-03-08T12:54:17;21.40;;;11.87;;
17604;SDS011;8921;50.964;6.800;2024-03-08T12:56:45;20.67;;;12.40;;
17604;SDS011;8921;50.964;6.800;2024-03-08T12:59:13;19.10;;;11.17;;
17604;SDS011;8921;50.964;6.800;2024-03-08T13:01:42;17.13;;;10.40;;
17604;SDS011;8921;50.964;6.800;2024-03-08T13:04:10;17.90;;;10.23;;
17604;SDS011;8921;50.964;6.800;2024-03-08T13:06:38;16.60;;;11.20;;
17604;SDS011;8921;50.964;6.800;2024-03-08T13:09:07;19.53;;;11.40;;
17604;SDS011;8921;50.964;6.800;2024-03-08T13:11:35;17.33;;;9.43;;
17604;SDS011;8921;50.964;6.800;2024-03-08T13:14:03;17.63;;;11.10;;
17604;SDS011;8921;50.964;6.800;2024-03-08T13:16:32;18.97;;;11.10;;
17604;SDS011;8921;50.964;6.800;2024-03-08T13:19:00;17.20;;;10.20;;
17604;SDS011;8921;50.964;6.800;2024-03-08T13:21:28;15.40;;;9.67;;
17604;SDS011;8921;50.964;6.800;2024-03-08T13:23:57;18.30;;;11.80;;
17604;SDS011;8921;50.964;6.800;2024-03-08T13:26:25;16.60;;;10.20;;
17604;SDS011;8921;50.964;6.800;2024-03-08T13:28:53;19.20;;;12.07;;
17604;SDS011;8921;50.964;6.800;2024-03-08T13:31:22;16.13;;;9.70;;
17604;SDS011;8921;50.964;6.800;2024-03-08T13:33:50;17.17;;;10.57;;
17604;SDS011;8921;50.964;6.800;2024-03-08T13:36:18;16.10;;;10.53;;
17604;SDS011;8921;50.964;6.800;2024-03-08T13:38:47;15.50;;;9.70;;
17604;SDS011;8921;50.964;6.800;2024-03-08T13:41:15;14.30;;;8.70;;
17604;SDS011;8921;50.964;6.800;2024-03-08T13:43:45;18.60;;;10.93;;
17604;SDS011;8921;50.964;6.800;2024-03-08T13:46:11;18.30;;;10.33;;
17604;SDS011;8921;50.964;6.800;2024-03-08T13:48:40;24.70;;;10.67;;
17604;SDS011;8921;50.964;6.800;2024-03-08T13:51:08;17.00;;;11.70;;
17604;SDS011;8921;50.964;6.800;2024-03-08T13:53:36;16.90;;;10.13;;
17604;SDS011;8921;50.964;6.800;2024-03-08T13:56:05;21.87;;;11.03;;
17604;SDS011;8921;50.964;6.800;2024-03-08T13:58:33;18.90;;;9.50;;
17604;SDS011;8921;50.964;6.800;2024-03-08T14:01:01;16.90;;;10.20;;
17604;SDS011;8921;50.964;6.800;2024-03-08T14:03:29;18.33;;;10.97;;
17604;SDS011;8921;50.964;6.800;2024-03-08T14:05:58;15.77;;;8.90;;
17604;SDS011;8921;50.964;6.800;2024-03-08T14:08:26;19.37;;;9.43;;
17604;SDS011;8921;50.964;6.800;2024-03-08T14:10:54;14.60;;;9.30;;
17604;SDS011;8921;50.964;6.800;2024-03-08T14:13:23;17.87;;;9.93;;
17604;SDS011;8921;50.964;6.800;2024-03-08T14:15:51;17.83;;;9.27;;
17604;SDS011;8921;50.964;6.800;2024-03-08T14:18:19;19.17;;;9.90;;
17604;SDS011;8921;50.964;6.800;2024-03-08T14:20:48;14.17;;;8.30;;
17604;SDS011;8921;50.964;6.800;2024-03-08T14:23:16;13.50;;;8.73;;
17604;SDS011;8921;50.964;6.800;2024-03-08T14:25:44;16.80;;;9.60;;
17604;SDS011;8921;50.964;6.800;2024-03-08T14:28:12;17.83;;;9.60;;
17604;SDS011;8921;50.964;6.800;2024-03-08T14:30:41;14.20;;;8.47;;
17604;SDS011;8921;50.964;6.800;2024-03-08T14:33:09;15.53;;;8.87;;
17604;SDS011;8921;50.964;6.800;2024-03-08T14:35:38;15.73;;;8.87;;
17604;SDS011;8921;50.964;6.800;2024-03-08T14:38:06;15.20;;;8.60;;
17604;SDS011;8921;50.964;6.800;2024-03-08T14:40:37;18.73;;;9.87;;
17604;SDS011;8921;50.964;6.800;2024-03-08T14:43:05;19.63;;;9.73;;
17604;SDS011;8921;50.964;6.800;2024-03-08T14:45:33;14.23;;;9.33;;
17604;SDS011;8921;50.964;6.800;2024-03-08T14:48:02;18.87;;;10.47;;
17604;SDS011;8921;50.964;6.800;2024-03-08T14:50:30;15.83;;;9.90;;
17604;SDS011;8921;50.964;6.800;2024-03-08T14:52:58;15.47;;;8.67;;
17604;SDS011;8921;50.964;6.800;2024-03-08T14:55:27;15.33;;;8.60;;
17604;SDS011;8921;50.964;6.800;2024-03-08T14:57:55;16.00;;;9.13;;
17604;SDS011;8921;50.964;6.800;2024-03-08T15:00:23;16.63;;;9.00;;